Time;durP1;ratioP1;P1;durP2;ratioP2;P2;SDS_P1;SDS_P2;PMS_P1;PMS_P2;Temp;Humidity;BMP_temperature;BMP_pressure;BME280_temperature;BME280_humidity;BME280_pressure;Samples;Min_cycle;Max_cycle;Signal;HPM_P1;HPM_P2
2023/04/30 00:00:50;;;;;;;11.23;3.72;;;6.90;99.90;;;;;;5041853;28;20123;-85
2023/04/30 00:03:16;;;;;;;11.10;4.50;;;6.90;99.90;;;;;;5052376;28;20557;-84
2023/04/30 00:05:41;;;;;;;12.35;3.60;;;6.80;99.90;;;;;;5048405;28;20041;-84
2023/04/30 00:08:07;;;;;;;11.52;3.58;;;6.80;99.90;;;;;;5049392;28;20163;-85
2023/04/30 00:10:32;;;;;;;10.70;3.55;;;6.70;99.90;;;;;;5032465;28;20052;-84
2023/04/30 00:12:58;;;;;;;13.15;3.13;;;6.80;99.90;;;;;;5047506;28;20133;-86
2023/04/30 00:15:23;;;;;;;9.45;2.70;;;6.70;99.90;;;;;;5036510;28;20483;-85
2023/04/30 00:17:49;;;;;;;11.38;3.22;;;6.70;99.90;;;;;;5051326;28;20062;-86
2023/04/30 00:20:15;;;;;;;10.02;3.58;;;6.70;99.90;;;;;;5054772;28;20061;-85
2023/04/30 00:22:40;;;;;;;14.55;4.93;;;6.60;99.90;;;;;;5053265;28;20028;-85
2023/04/30 00:25:06;;;;;;;8.40;3.95;;;6.50;99.90;;;;;;5048549;28;20037;-85
2023/04/30 00:27:32;;;;;;;6.90;3.75;;;6.50;99.90;;;;;;5050754;28;20048;-85
2023/04/30 00:29:57;;;;;;;10.95;4.03;;;6.40;99.90;;;;;;5035296;28;20732;-85
2023/04/30 00:32:23;;;;;;;9.45;3.95;;;6.30;99.90;;;;;;5035381;28;20494;-84
2023/04/30 00:34:48;;;;;;;12.80;3.47;;;6.30;99.90;;;;;;5035270;28;20041;-85
2023/04/30 00:37:14;;;;;;;9.00;3.63;;;6.40;99.90;;;;;;5029702;28;20526;-85
2023/04/30 00:39:40;;;;;;;6.10;2.85;;;6.30;99.90;;;;;;5047845;28;20445;-85
2023/04/30 00:42:05;;;;;;;4.78;2.88;;;6.30;99.90;;;;;;5031001;28;20408;-85
2023/04/30 00:44:31;;;;;;;6.60;2.40;;;6.20;99.90;;;;;;5048019;28;20067;-85
2023/04/30 00:46:56;;;;;;;3.08;2.10;;;6.10;99.90;;;;;;5047350;28;20125;-85
2023/04/30 00:49:22;;;;;;;4.28;2.22;;;6.10;99.90;;;;;;5046485;28;20048;-85
2023/04/30 00:51:49;;;;;;;9.98;2.72;;;6.10;99.90;;;;;;5054341;28;20062;-85
2023/04/30 00:54:16;;;;;;;11.57;3.60;;;6.00;99.90;;;;;;5034413;28;20576;-85
2023/04/30 00:56:42;;;;;;;7.05;2.78;;;6.00;99.90;;;;;;5048515;28;20041;-85
2023/04/30 00:59:08;;;;;;;15.40;2.78;;;6.10;99.90;;;;;;5047639;28;20040;-85
2023/04/30 01:01:33;;;;;;;7.38;2.80;;;6.10;99.90;;;;;;5046372;28;20500;-85
2023/04/30 01:03:59;;;;;;;8.25;3.35;;;6.00;99.90;;;;;;5049003;28;20047;-85
2023/04/30 01:06:26;;;;;;;7.78;2.97;;;6.00;99.90;;;;;;5044931;28;20190;-85
2023/04/30 01:08:52;;;;;;;6.80;2.92;;;6.00;99.90;;;;;;5051120;28;20040;-85
2023/04/30 01:12:03;;;;;;;7.72;2.50;;;5.90;99.90;;;;;;5050761;28;20403;-85
2023/04/30 01:14:53;;;;;;;7.20;2.15;;;5.90;99.90;;;;;;5019600;28;20076;-86
2023/04/30 01:17:42;;;;;;;5.60;2.05;;;5.90;99.90;;;;;;5056892;28;20398;-85
2023/04/30 01:20:10;;;;;;;7.07;2.33;;;5.80;99.90;;;;;;5067963;28;20040;-85
2023/04/30 01:22:49;;;;;;;6.40;1.80;;;5.70;99.90;;;;;;5030616;28;20040;-85
2023/04/30 01:25:20;;;;;;;5.03;2.08;;;6.40;99.90;;;;;;5067671;28;20045;-85
2023/04/30 01:28:05;;;;;;;6.30;2.38;;;5.60;99.90;;;;;;5030557;28;20099;-85
2023/04/30 01:30:32;;;;;;;5.93;2.50;;;5.60;99.90;;;;;;5040822;28;20065;-85
2023/04/30 01:32:59;;;;;;;5.90;2.55;;;5.50;99.90;;;;;;5050696;28;20051;-85
2023/04/30 01:35:46;;;;;;;9.90;2.38;;;5.50;99.90;;;;;;5051895;28;20451;-84
2023/04/30 01:38:38;;;;;;;4.78;2.10;;;5.50;99.90;;;;;;5048318;28;20393;-85
2023/04/30 01:41:17;;;;;;;5.13;2.20;;;5.40;99.90;;;;;;5058450;28;20040;-85
2023/04/30 01:43:43;;;;;;;5.03;2.78;;;5.30;99.90;;;;;;5046994;28;20048;-85
2023/04/30 01:46:30;;;;;;;5.55;2.80;;;5.20;99.90;;;;;;5045064;28;20049;-85
2023/04/30 01:49:16;;;;;;;7.95;2.08;;;5.20;99.90;;;;;;5043676;28;20406;-85
2023/04/30 01:51:45;;;;;;;6.35;3.08;;;5.20;99.90;;;;;;5029383;28;20049;-85
2023/04/30 01:54:29;;;;;;;4.38;2.08;;;5.10;99.90;;;;;;5044290;28;20045;-85
2023/04/30 01:57:04;;;;;;;4.30;2.78;;;5.10;99.90;;;;;;5047393;28;20107;-85
2023/04/30 01:59:34;;;;;;;6.90;2.30;;;5.10;99.90;;;;;;5043511;28;20033;-85
2023/04/30 02:02:00;;;;;;;4.25;1.63;;;5.10;99.90;;;;;;5048105;28;20246;-85
2023/04/30 02:04:26;;;;;;;4.20;1.38;;;5.10;99.90;;;;;;5053122;28;20145;-85
2023/04/30 02:06:52;;;;;;;1.65;0.70;;;5.00;99.90;;;;;;5053049;28;20041;-85
2023/04/30 02:09:17;;;;;;;3.83;2.25;;;5.00;99.90;;;;;;5042908;28;20064;-85
2023/04/30 02:11:43;;;;;;;6.07;2.10;;;4.90;99.90;;;;;;5049538;28;20127;-84
2023/04/30 02:14:08;;;;;;;6.13;2.88;;;4.90;99.90;;;;;;5049375;28;20502;-85
2023/04/30 02:16:34;;;;;;;4.90;3.42;;;4.90;99.90;;;;;;5049262;28;20106;-85
2023/04/30 02:19:00;;;;;;;14.93;4.22;;;4.90;99.90;;;;;;5051288;28;20151;-85
2023/04/30 02:21:26;;;;;;;11.52;4.20;;;4.90;99.90;;;;;;5030237;28;20041;-85
2023/04/30 02:23:51;;;;;;;7.10;3.75;;;4.90;99.90;;;;;;5041490;28;20044;-85
2023/04/30 02:26:17;;;;;;;5.07;3.50;;;4.90;99.90;;;;;;5030349;28;20128;-84
2023/04/30 02:28:42;;;;;;;5.70;3.45;;;4.90;99.90;;;;;;5058287;28;20052;-85
2023/04/30 02:31:08;;;;;;;6.35;3.40;;;4.90;99.90;;;;;;5043876;28;20044;-84
2023/04/30 02:33:34;;;;;;;5.22;3.50;;;5.00;99.90;;;;;;5048579;28;20033;-85
2023/04/30 02:36:00;;;;;;;4.90;2.42;;;5.00;99.90;;;;;;5051671;28;20434;-85
2023/04/30 02:38:25;;;;;;;4.93;2.80;;;5.00;99.90;;;;;;5032395;28;20039;-85
2023/04/30 02:40:51;;;;;;;4.45;2.53;;;5.60;99.90;;;;;;5048922;28;20461;-85
2023/04/30 02:43:16;;;;;;;7.03;3.40;;;4.90;99.90;;;;;;5044688;28;20051;-86
2023/04/30 02:45:42;;;;;;;3.92;3.13;;;4.90;99.90;;;;;;5049314;28;20128;-85
2023/04/30 02:48:08;;;;;;;4.22;1.90;;;4.80;99.90;;;;;;5049513;28;20044;-85
2023/04/30 02:50:33;;;;;;;4.30;2.00;;;4.70;99.90;;;;;;5033498;28;20499;-85
2023/04/30 02:52:59;;;;;;;41.03;4.80;;;4.70;99.90;;;;;;5021359;28;20095;-85
2023/04/30 02:55:24;;;;;;;3.05;2.72;;;4.70;99.90;;;;;;5042986;28;20060;-85
2023/04/30 02:57:50;;;;;;;4.47;2.50;;;4.60;99.90;;;;;;5023947;28;20045;-85
2023/04/30 03:00:24;;;;;;;197.95;6.97;;;4.50;99.90;;;;;;5044127;28;20044;-85
2023/04/30 03:02:49;;;;;;;4.43;3.10;;;4.50;99.90;;;;;;5040938;28;20060;-85
2023/04/30 03:05:15;;;;;;;4.28;2.78;;;4.50;99.90;;;;;;5024241;28;20041;-85
2023/04/30 03:07:41;;;;;;;4.15;2.95;;;4.50;99.90;;;;;;5024999;28;20051;-85
2023/04/30 03:10:07;;;;;;;2.80;1.95;;;4.70;99.90;;;;;;5059569;28;20043;-85
2023/04/30 03:12:33;;;;;;;2.50;1.77;;;4.60;99.90;;;;;;5035130;28;20068;-85
2023/04/30 03:14:58;;;;;;;3.20;2.40;;;4.60;99.90;;;;;;5021516;28;20037;-85
2023/04/30 03:17:24;;;;;;;3.60;2.22;;;4.60;99.90;;;;;;5027333;28;20120;-86
2023/04/30 03:19:50;;;;;;;3.65;2.35;;;4.60;99.90;;;;;;5038310;28;20113;-85
2023/04/30 03:22:18;;;;;;;3.25;2.95;;;4.60;99.90;;;;;;5041297;28;20053;-84
2023/04/30 03:24:44;;;;;;;10.10;4.53;;;4.60;99.90;;;;;;5062875;28;20041;-84
2023/04/30 03:27:09;;;;;;;8.65;4.60;;;4.60;99.90;;;;;;5047478;28;20102;-85
2023/04/30 03:29:35;;;;;;;9.05;4.95;;;4.60;99.90;;;;;;5036476;28;20053;-85
2023/04/30 03:32:00;;;;;;;7.40;4.03;;;4.60;99.90;;;;;;5030267;28;20470;-86
2023/04/30 03:34:26;;;;;;;12.35;5.28;;;4.60;99.90;;;;;;5056232;28;20036;-85
2023/04/30 03:36:51;;;;;;;9.30;4.40;;;4.60;99.90;;;;;;5045794;28;20410;-85
2023/04/30 03:39:17;;;;;;;8.27;4.93;;;4.60;99.90;;;;;;5043851;28;20312;-85
2023/04/30 03:41:47;;;;;;;8.98;6.25;;;4.60;99.90;;;;;;5038729;28;20079;-85
2023/04/30 03:44:14;;;;;;;5.60;3.25;;;4.50;99.90;;;;;;5042759;28;20488;-86
2023/04/30 03:46:42;;;;;;;4.13;3.20;;;4.40;99.90;;;;;;5041554;28;20080;-85
2023/04/30 03:49:07;;;;;;;7.45;5.43;;;4.40;99.90;;;;;;5041175;28;20045;-85
2023/04/30 03:51:38;;;;;;;12.50;5.30;;;4.60;99.90;;;;;;5029920;28;20142;-85
2023/04/30 03:54:05;;;;;;;8.57;4.82;;;4.50;99.90;;;;;;5039449;28;20050;-85
2023/04/30 03:56:31;;;;;;;8.35;4.75;;;4.60;99.90;;;;;;5043896;28;20052;-85
2023/04/30 03:58:56;;;;;;;7.50;4.35;;;4.60;99.90;;;;;;5062624;28;20484;-85
2023/04/30 04:01:22;;;;;;;10.40;5.43;;;4.70;99.90;;;;;;5045305;28;20041;-85
2023/04/30 04:03:48;;;;;;;6.47;4.78;;;4.80;99.90;;;;;;5040995;28;20052;-85
2023/04/30 04:06:13;;;;;;;7.65;4.70;;;4.90;99.90;;;;;;5041208;28;20041;-85
2023/04/30 04:08:42;;;;;;;5.38;4.88;;;4.90;99.90;;;;;;5073965;28;20092;-85
2023/04/30 04:11:08;;;;;;;5.30;4.65;;;4.90;99.90;;;;;;5038602;28;20084;-85
2023/04/30 04:13:34;;;;;;;7.03;4.35;;;4.90;99.90;;;;;;5037675;28;20706;-85
2023/04/30 04:15:59;;;;;;;8.65;5.13;;;5.00;99.90;;;;;;5044812;28;20055;-85
2023/04/30 04:18:25;;;;;;;5.32;3.40;;;5.10;99.90;;;;;;5040199;28;20495;-85
2023/04/30 04:20:50;;;;;;;7.65;4.50;;;5.10;99.90;;;;;;5038713;28;20554;-84
2023/04/30 04:23:16;;;;;;;8.50;4.30;;;5.20;99.90;;;;;;5035499;28;20030;-85
2023/04/30 04:25:43;;;;;;;10.52;4.90;;;5.30;99.90;;;;;;5041102;28;20033;-84
2023/04/30 04:28:08;;;;;;;10.32;5.32;;;5.30;99.90;;;;;;5039492;28;20052;-85
2023/04/30 04:30:35;;;;;;;10.27;4.97;;;5.30;99.90;;;;;;5061364;28;20025;-85
2023/04/30 04:33:01;;;;;;;7.05;4.28;;;5.40;99.90;;;;;;5049631;28;20052;-85
2023/04/30 04:35:26;;;;;;;11.38;5.38;;;5.40;99.90;;;;;;5045215;28;20029;-84
2023/04/30 04:37:52;;;;;;;8.40;4.20;;;5.50;99.90;;;;;;5049999;28;20483;-85
2023/04/30 04:40:18;;;;;;;8.07;3.88;;;5.50;99.90;;;;;;5048496;28;20037;-85
2023/04/30 04:42:43;;;;;;;11.27;4.53;;;5.60;99.90;;;;;;5041907;28;20044;-85
2023/04/30 04:45:09;;;;;;;6.00;3.50;;;5.90;99.90;;;;;;5035656;28;20499;-85
2023/04/30 04:47:35;;;;;;;7.25;4.10;;;6.40;99.90;;;;;;5034034;28;20041;-85
2023/04/30 04:50:01;;;;;;;8.50;3.88;;;7.00;99.90;;;;;;5046002;28;20064;-85
2023/04/30 04:52:27;;;;;;;4.30;2.63;;;7.50;99.90;;;;;;5045685;28;20091;-85
2023/04/30 04:54:52;;;;;;;6.93;3.13;;;8.00;99.90;;;;;;5042976;28;20045;-85
2023/04/30 04:57:18;;;;;;;9.90;2.58;;;8.60;99.90;;;;;;5023953;28;20095;-86
2023/04/30 04:59:43;;;;;;;4.57;2.22;;;8.90;99.90;;;;;;5079425;28;20053;-85
2023/04/30 05:02:09;;;;;;;10.48;2.63;;;9.40;99.90;;;;;;5053136;28;20055;-85
2023/04/30 05:04:35;;;;;;;7.10;2.55;;;9.90;99.90;;;;;;5048593;28;20037;-84
2023/04/30 05:07:01;;;;;;;7.57;2.15;;;10.30;99.90;;;;;;5052909;28;20465;-84
2023/04/30 05:09:26;;;;;;;6.40;2.47;;;11.50;99.90;;;;;;5035363;28;20029;-86
2023/04/30 05:11:52;;;;;;;5.20;1.90;;;12.10;99.90;;;;;;5046932;28;20045;-85
2023/04/30 05:14:17;;;;;;;7.47;2.22;;;13.00;99.90;;;;;;5048531;28;20076;-85
2023/04/30 05:16:43;;;;;;;6.95;2.03;;;13.50;99.90;;;;;;5031693;28;20048;-85
2023/04/30 05:19:08;;;;;;;7.93;2.67;;;13.60;99.90;;;;;;5067091;28;20044;-85
2023/04/30 05:21:34;;;;;;;10.85;1.95;;;13.60;99.90;;;;;;5052608;28;20033;-84
2023/04/30 05:24:00;;;;;;;3.78;1.17;;;14.50;99.90;;;;;;5055576;28;20533;-85
2023/04/30 05:26:26;;;;;;;9.00;2.40;;;14.60;99.90;;;;;;5034429;28;20033;-85
2023/04/30 05:28:51;;;;;;;10.23;2.10;;;15.10;99.90;;;;;;5044356;28;20048;-85
2023/04/30 05:31:17;;;;;;;6.63;1.70;;;15.30;99.90;;;;;;5052111;28;20427;-86
2023/04/30 05:33:43;;;;;;;6.70;1.45;;;15.00;99.90;;;;;;5052567;28;20782;-85
2023/04/30 05:36:12;;;;;;;5.57;1.45;;;14.80;99.90;;;;;;5033184;28;20128;-85
2023/04/30 05:38:38;;;;;;;7.30;1.33;;;15.10;99.90;;;;;;5068655;28;20037;-86
2023/04/30 05:41:04;;;;;;;6.85;2.58;;;15.60;99.90;;;;;;5049014;28;20044;-86
2023/04/30 05:43:29;;;;;;;10.45;1.52;;;16.10;99.90;;;;;;5042552;28;20034;-85
2023/04/30 05:45:55;;;;;;;5.50;1.55;;;16.80;99.90;;;;;;5082510;28;20037;-86
2023/04/30 05:48:20;;;;;;;7.43;1.85;;;17.10;99.90;;;;;;5050264;28;20041;-86
2023/04/30 05:50:46;;;;;;;6.90;1.95;;;17.30;99.90;;;;;;5043302;28;20048;-87
2023/04/30 05:53:12;;;;;;;10.20;2.20;;;17.40;99.90;;;;;;5049198;28;20063;-87
2023/04/30 05:55:38;;;;;;;11.57;2.03;;;17.50;99.90;;;;;;5049904;28;20036;-87
2023/04/30 05:58:03;;;;;;;7.57;1.60;;;18.00;99.90;;;;;;5042434;28;20041;-85
2023/04/30 06:00:30;;;;;;;6.80;1.77;;;17.70;99.90;;;;;;5041606;28;20037;-86
2023/04/30 06:02:55;;;;;;;9.07;2.10;;;17.10;99.90;;;;;;5045916;28;20044;-86
2023/04/30 06:05:21;;;;;;;11.30;2.10;;;17.60;99.90;;;;;;5050087;28;20040;-86
2023/04/30 06:07:47;;;;;;;7.68;2.60;;;17.80;99.90;;;;;;5050509;28;20129;-86
2023/04/30 06:10:12;;;;;;;8.63;1.90;;;18.00;99.90;;;;;;5051068;28;20037;-86
2023/04/30 06:12:38;;;;;;;7.80;2.08;;;18.00;99.90;;;;;;5032265;28;20134;-85
2023/04/30 06:15:06;;;;;;;4.00;1.40;;;18.30;99.90;;;;;;5049082;28;20076;-86
2023/04/30 06:18:19;;;;;;;6.50;2.17;;;17.50;99.30;;;;;;5027577;28;20086;-88
2023/04/30 06:21:58;;;;;;;7.35;1.63;;;15.90;99.90;;;;;;5044195;28;20106;-88
2023/04/30 06:25:13;;;;;;;7.88;1.70;;;15.60;99.90;;;;;;5042320;28;20097;-88
2023/04/30 06:28:35;;;;;;;4.65;1.58;;;14.90;99.90;;;;;;5042626;28;20045;-88
2023/04/30 06:31:01;;;;;;;8.13;1.90;;;14.00;99.90;;;;;;5041207;28;20067;-86
2023/04/30 06:33:32;;;;;;;11.60;2.53;;;14.00;99.90;;;;;;5027021;28;20543;-87
2023/04/30 06:36:00;;;;;;;6.53;1.73;;;14.10;99.90;;;;;;5030189;28;20160;-86
2023/04/30 06:38:26;;;;;;;6.18;1.88;;;14.30;99.90;;;;;;5026227;28;20514;-87
2023/04/30 06:40:52;;;;;;;9.35;2.70;;;14.40;99.90;;;;;;5062760;28;20404;-86
2023/04/30 06:43:17;;;;;;;10.45;3.20;;;14.20;99.90;;;;;;5044730;28;20033;-86
2023/04/30 06:45:55;;;;;;;9.60;2.35;;;13.50;99.90;;;;;;5047463;28;20045;-87
2023/04/30 06:48:22;;;;;;;8.13;2.42;;;13.30;99.90;;;;;;5048077;28;20091;-85
2023/04/30 06:50:48;;;;;;;4.18;1.70;;;13.00;99.90;;;;;;5045307;28;20662;-85
2023/04/30 06:53:14;;;;;;;8.60;2.10;;;13.20;99.90;;;;;;5029237;28;20049;-86
2023/04/30 06:55:41;;;;;;;7.95;1.85;;;13.30;99.90;;;;;;5042919;28;20395;-82
2023/04/30 06:58:07;;;;;;;8.55;2.35;;;13.50;99.90;;;;;;5046057;28;20114;-87
2023/04/30 07:00:33;;;;;;;7.22;1.60;;;13.70;99.90;;;;;;5045000;28;20119;-86
2023/04/30 07:03:01;;;;;;;10.63;2.05;;;13.60;99.90;;;;;;5034799;28;20051;-87
2023/04/30 07:05:28;;;;;;;5.30;2.10;;;13.80;99.90;;;;;;5046200;28;20388;-84
2023/04/30 07:07:53;;;;;;;8.88;2.22;;;13.70;99.90;;;;;;5028819;28;20083;-83
2023/04/30 07:10:19;;;;;;;8.05;1.75;;;13.60;99.90;;;;;;5047807;28;20057;-84
2023/04/30 07:12:45;;;;;;;10.85;2.15;;;13.50;99.90;;;;;;5041583;28;20075;-84
2023/04/30 07:15:10;;;;;;;6.47;2.22;;;13.30;99.90;;;;;;5045109;28;20126;-85
2023/04/30 07:17:37;;;;;;;8.98;2.50;;;13.30;99.90;;;;;;5060163;28;20052;-85
2023/04/30 07:20:03;;;;;;;9.38;2.90;;;13.30;99.90;;;;;;5047357;28;20088;-85
2023/04/30 07:22:30;;;;;;;11.77;3.15;;;13.60;99.90;;;;;;5040214;28;20038;-86
2023/04/30 07:25:12;;;;;;;27.92;2.95;;;13.50;99.90;;;;;;5048461;28;20041;-85
2023/04/30 07:27:56;;;;;;;9.30;2.03;;;13.50;99.90;;;;;;5047092;28;20045;-85
2023/04/30 07:30:22;;;;;;;12.05;2.30;;;13.20;99.90;;;;;;5050885;28;20041;-85
2023/04/30 07:32:47;;;;;;;14.00;3.00;;;13.20;99.90;;;;;;5021494;28;21023;-82
2023/04/30 07:35:13;;;;;;;30.33;3.78;;;13.10;99.90;;;;;;5051162;28;20060;-84
2023/04/30 07:37:40;;;;;;;15.25;3.40;;;13.10;99.90;;;;;;5040482;28;20508;-83
2023/04/30 07:40:08;;;;;;;5.88;1.75;;;13.20;99.90;;;;;;5044138;28;20052;-81
2023/04/30 07:42:33;;;;;;;8.98;1.85;;;13.00;99.90;;;;;;5069251;28;20088;-82
2023/04/30 07:44:59;;;;;;;8.70;1.95;;;13.20;99.90;;;;;;5041597;28;20069;-81
2023/04/30 07:47:25;;;;;;;7.57;2.08;;;12.90;99.90;;;;;;5045364;28;20432;-83
2023/04/30 07:49:51;;;;;;;8.02;2.00;;;13.00;99.90;;;;;;5039467;28;20044;-84
2023/04/30 07:52:17;;;;;;;10.70;2.25;;;12.90;99.90;;;;;;5042643;28;20589;-84
2023/04/30 07:54:42;;;;;;;8.52;2.40;;;13.00;99.90;;;;;;5045547;28;20565;-84
2023/04/30 07:57:08;;;;;;;11.55;3.03;;;13.40;99.90;;;;;;5035375;28;20037;-86
2023/04/30 07:59:34;;;;;;;9.27;3.22;;;13.30;99.90;;;;;;5029670;28;20055;-85
2023/04/30 08:02:00;;;;;;;9.55;2.90;;;13.40;99.90;;;;;;5045528;28;20073;-85
2023/04/30 08:04:26;;;;;;;10.23;2.85;;;13.30;99.90;;;;;;5048292;28;20131;-85
2023/04/30 08:06:51;;;;;;;10.52;2.65;;;13.50;99.90;;;;;;5049887;28;20044;-85
2023/04/30 08:09:17;;;;;;;7.15;2.40;;;13.40;99.90;;;;;;5026086;28;20041;-85
2023/04/30 08:11:42;;;;;;;12.85;3.15;;;13.30;99.90;;;;;;5075664;28;20037;-85
2023/04/30 08:14:08;;;;;;;9.80;1.85;;;13.50;99.90;;;;;;5047266;28;20041;-86
2023/04/30 08:16:33;;;;;;;8.68;2.30;;;13.50;99.90;;;;;;5052801;28;20059;-85
2023/04/30 08:18:59;;;;;;;6.65;1.67;;;13.50;99.90;;;;;;5047133;28;20033;-84
2023/04/30 08:21:26;;;;;;;7.78;1.73;;;13.60;99.90;;;;;;5034076;28;20041;-85
2023/04/30 08:23:53;;;;;;;7.13;1.80;;;13.70;99.90;;;;;;5040779;28;20492;-84
2023/04/30 08:26:18;;;;;;;8.30;2.10;;;14.20;99.90;;;;;;5050073;28;20071;-85
2023/04/30 08:28:44;;;;;;;6.57;1.55;;;14.60;99.90;;;;;;5048022;28;20152;-85
2023/04/30 08:31:09;;;;;;;7.95;2.63;;;15.00;99.90;;;;;;5051696;28;20041;-84
2023/04/30 08:33:35;;;;;;;5.75;1.80;;;15.50;99.90;;;;;;5050659;28;20036;-84
2023/04/30 08:36:01;;;;;;;7.32;2.15;;;14.90;99.90;;;;;;5050854;28;20041;-84
2023/04/30 08:38:27;;;;;;;9.50;1.67;;;14.80;99.90;;;;;;5049659;28;20508;-84
2023/04/30 08:41:05;;;;;;;9.35;1.50;;;14.40;99.90;;;;;;5055610;28;20227;-84
2023/04/30 08:43:34;;;;;;;9.52;1.98;;;14.50;99.90;;;;;;5058221;28;20095;-84
2023/04/30 08:46:01;;;;;;;8.75;1.80;;;14.30;99.90;;;;;;5053889;28;20804;-81
2023/04/30 08:48:27;;;;;;;10.60;2.42;;;14.50;99.90;;;;;;5051341;28;20035;-82
2023/04/30 08:50:52;;;;;;;5.93;1.40;;;15.10;99.90;;;;;;5051054;28;20113;-84
2023/04/30 08:53:20;;;;;;;10.30;1.83;;;14.90;99.90;;;;;;5045657;28;20651;-83
2023/04/30 08:55:46;;;;;;;4.95;1.63;;;14.70;99.90;;;;;;5052893;28;20048;-85
2023/04/30 08:58:12;;;;;;;9.32;1.40;;;14.80;99.90;;;;;;5046152;28;20041;-82
2023/04/30 09:00:56;;;;;;;8.18;2.53;;;14.50;99.90;;;;;;5052405;28;20045;-85
2023/04/30 09:03:22;;;;;;;9.43;2.13;;;14.20;99.90;;;;;;5052262;28;20056;-82
2023/04/30 09:05:47;;;;;;;10.65;1.98;;;14.10;99.90;;;;;;5051355;28;20042;-81
2023/04/30 09:08:18;;;;;;;6.65;1.88;;;14.30;99.90;;;;;;5049551;28;20044;-82
2023/04/30 09:10:44;;;;;;;9.77;2.28;;;14.20;99.90;;;;;;5048503;28;20049;-82
2023/04/30 09:13:11;;;;;;;11.57;2.58;;;14.60;99.90;;;;;;5052205;28;20119;-82
2023/04/30 09:15:40;;;;;;;10.10;1.90;;;14.60;99.90;;;;;;5051971;28;20048;-81
2023/04/30 09:18:16;;;;;;;9.95;2.22;;;14.60;99.90;;;;;;5084938;28;20052;-81
2023/04/30 09:21:02;;;;;;;16.83;4.53;;;14.80;99.90;;;;;;5053054;28;20029;-81
2023/04/30 09:23:28;;;;;;;15.73;2.53;;;15.20;99.90;;;;;;5045247;28;20465;-82
2023/04/30 09:25:55;;;;;;;7.55;2.25;;;15.50;99.90;;;;;;5050676;28;20067;-81
2023/04/30 09:28:27;;;;;;;7.05;2.42;;;15.70;99.90;;;;;;5048510;28;20045;-83
2023/04/30 09:30:55;;;;;;;13.00;2.35;;;15.90;99.90;;;;;;5049130;28;20076;-81
2023/04/30 09:33:21;;;;;;;6.50;2.05;;;15.80;99.90;;;;;;5052518;28;20065;-81
2023/04/30 09:35:48;;;;;;;9.45;2.10;;;15.80;99.90;;;;;;5049959;28;20032;-81
2023/04/30 09:38:32;;;;;;;4.47;1.35;;;15.70;99.90;;;;;;5050893;28;20098;-82
2023/04/30 09:40:59;;;;;;;5.88;1.75;;;15.20;99.90;;;;;;5049734;28;20041;-83
2023/04/30 09:43:25;;;;;;;5.82;1.70;;;15.30;99.90;;;;;;5052854;28;20041;-82
2023/04/30 09:45:51;;;;;;;9.57;2.63;;;14.90;99.90;;;;;;5044672;28;20145;-80
2023/04/30 09:48:24;;;;;;;5.50;2.03;;;14.80;99.90;;;;;;5051871;28;20094;-82
2023/04/30 09:51:00;;;;;;;5.60;1.95;;;15.10;99.90;;;;;;5040703;28;20069;-86
2023/04/30 09:53:26;;;;;;;11.07;2.25;;;15.30;99.90;;;;;;5047779;28;20044;-84
2023/04/30 09:55:52;;;;;;;6.53;2.08;;;15.00;99.90;;;;;;5030627;28;20127;-85
2023/04/30 09:58:18;;;;;;;9.73;2.45;;;14.90;99.90;;;;;;5045825;28;20132;-83
2023/04/30 10:00:47;;;;;;;10.52;2.03;;;15.00;99.90;;;;;;5046333;28;20049;-83
2023/04/30 10:03:14;;;;;;;8.68;2.28;;;15.00;99.90;;;;;;5047538;28;20064;-84
2023/04/30 10:05:50;;;;;;;6.43;2.25;;;14.80;99.90;;;;;;5040919;28;20384;-84
2023/04/30 10:08:30;;;;;;;9.73;1.63;;;14.50;99.90;;;;;;5045244;28;20044;-83
2023/04/30 10:11:03;;;;;;;9.85;1.65;;;14.80;99.90;;;;;;5026020;28;20053;-83
2023/04/30 10:13:32;;;;;;;6.35;2.22;;;14.70;99.90;;;;;;5025233;28;20056;-83
2023/04/30 10:16:02;;;;;;;9.07;1.60;;;15.00;99.90;;;;;;5041546;28;20045;-83
2023/04/30 10:18:41;;;;;;;6.68;1.88;;;15.20;99.90;;;;;;5061490;28;20123;-83
2023/04/30 10:21:13;;;;;;;6.97;1.80;;;15.50;99.90;;;;;;5045973;28;20048;-81
2023/04/30 10:23:40;;;;;;;7.95;2.03;;;15.50;99.90;;;;;;5030983;28;20097;-81
2023/04/30 10:26:09;;;;;;;3.95;1.70;;;15.30;99.90;;;;;;5048760;28;20057;-81
2023/04/30 10:28:36;;;;;;;8.88;2.10;;;15.00;99.90;;;;;;5039275;28;20133;-81
2023/04/30 10:31:03;;;;;;;7.82;2.38;;;14.80;99.90;;;;;;5042051;28;20648;-80
2023/04/30 10:33:48;;;;;;;7.85;2.30;;;14.60;99.90;;;;;;5042880;28;20052;-79
2023/04/30 10:36:23;;;;;;;7.88;2.20;;;14.70;99.90;;;;;;5049548;28;20112;-82
2023/04/30 10:38:49;;;;;;;6.63;2.20;;;14.60;99.90;;;;;;5044084;28;20052;-84
2023/04/30 10:41:14;;;;;;;6.82;1.58;;;14.70;99.90;;;;;;5050780;28;20048;-82
2023/04/30 10:43:40;;;;;;;8.05;2.25;;;14.70;99.90;;;;;;5042036;28;20407;-85
2023/04/30 10:46:09;;;;;;;9.25;2.65;;;14.70;99.90;;;;;;5047864;28;20052;-86
2023/04/30 10:48:38;;;;;;;8.07;1.70;;;14.90;99.90;;;;;;5025608;28;20100;-84
2023/04/30 10:51:03;;;;;;;3.45;2.08;;;15.30;99.90;;;;;;5036147;28;20037;-85
2023/04/30 10:53:30;;;;;;;4.45;1.23;;;14.90;99.90;;;;;;5042240;28;20037;-84
2023/04/30 10:56:06;;;;;;;4.38;1.42;;;15.10;99.90;;;;;;5042457;28;20033;-84
2023/04/30 10:58:34;;;;;;;3.38;1.38;;;15.20;99.90;;;;;;5040241;28;20506;-84
2023/04/30 11:01:12;;;;;;;4.93;1.35;;;15.50;99.90;;;;;;5048329;28;20128;-83
2023/04/30 11:03:41;;;;;;;6.72;1.52;;;15.30;99.90;;;;;;5043577;28;20410;-85
2023/04/30 11:06:10;;;;;;;3.75;1.52;;;15.20;99.90;;;;;;5036657;28;20037;-84
2023/04/30 11:08:37;;;;;;;4.63;1.30;;;15.30;99.90;;;;;;5048217;28;20048;-83
2023/04/30 11:11:07;;;;;;;4.40;1.17;;;15.50;99.90;;;;;;5048638;28;20040;-84
2023/04/30 11:13:47;;;;;;;3.30;1.25;;;15.60;99.90;;;;;;5046613;28;20495;-84
2023/04/30 11:16:15;;;;;;;6.40;1.75;;;15.90;99.90;;;;;;5045178;28;20091;-85
2023/04/30 11:18:45;;;;;;;5.78;1.33;;;15.90;99.90;;;;;;5045659;28;20124;-84
2023/04/30 11:21:11;;;;;;;3.42;1.35;;;16.20;99.90;;;;;;5064876;28;20041;-85
2023/04/30 11:23:43;;;;;;;5.53;1.42;;;16.40;99.90;;;;;;5041449;28;20095;-85
2023/04/30 11:26:09;;;;;;;6.03;1.50;;;16.40;99.90;;;;;;5048040;28;20509;-85
2023/04/30 11:28:36;;;;;;;3.75;1.23;;;16.70;99.90;;;;;;5047484;28;20037;-85
2023/04/30 11:31:03;;;;;;;3.47;1.50;;;16.70;99.90;;;;;;5048569;28;20542;-85
2023/04/30 11:33:30;;;;;;;5.60;1.00;;;17.00;99.90;;;;;;5036725;28;20067;-85
2023/04/30 11:35:58;;;;;;;3.97;1.25;;;16.80;99.90;;;;;;5049374;28;20106;-84
2023/04/30 11:38:29;;;;;;;4.70;1.02;;;16.90;99.90;;;;;;5036872;28;20045;-85
2023/04/30 11:40:56;;;;;;;3.28;0.95;;;16.90;99.90;;;;;;5050056;28;20075;-85
2023/04/30 11:43:33;;;;;;;3.50;1.48;;;16.80;99.90;;;;;;5048539;28;20422;-85
2023/04/30 11:46:04;;;;;;;3.83;1.08;;;16.20;99.90;;;;;;5049544;28;20039;-85
2023/04/30 11:48:34;;;;;;;3.78;1.00;;;15.90;99.90;;;;;;5041488;28;20043;-85
2023/04/30 11:51:27;;;;;;;4.38;0.98;;;15.90;99.90;;;;;;5049190;28;20044;-85
2023/04/30 11:53:53;;;;;;;2.53;1.00;;;16.00;99.90;;;;;;5047126;28;20525;-84
2023/04/30 11:56:24;;;;;;;2.67;0.80;;;16.30;99.90;;;;;;5044961;28;20124;-85
2023/04/30 11:58:51;;;;;;;3.60;1.33;;;16.40;99.90;;;;;;5047060;28;20057;-86
2023/04/30 12:01:18;;;;;;;3.55;0.82;;;16.20;99.90;;;;;;5043465;28;20120;-85
2023/04/30 12:03:46;;;;;;;2.30;0.70;;;16.40;99.90;;;;;;5048562;28;20044;-85
2023/04/30 12:06:21;;;;;;;3.15;1.15;;;16.00;99.90;;;;;;5047256;28;20041;-85
2023/04/30 12:08:48;;;;;;;7.82;1.13;;;15.60;99.90;;;;;;5047353;28;20622;-85
2023/04/30 12:11:25;;;;;;;3.47;1.10;;;15.50;99.90;;;;;;5062741;28;20041;-87
2023/04/30 12:13:56;;;;;;;2.58;0.77;;;15.50;99.90;;;;;;5047533;28;20415;-83
2023/04/30 12:16:56;;;;;;;3.92;0.95;;;15.80;99.90;;;;;;5044553;28;20045;-86
2023/04/30 12:19:24;;;;;;;6.35;0.90;;;16.10;99.90;;;;;;5046287;28;20597;-84
2023/04/30 12:21:50;;;;;;;6.15;1.25;;;16.30;99.90;;;;;;5045969;28;20056;-85
2023/04/30 12:24:18;;;;;;;2.75;0.60;;;16.50;99.90;;;;;;5025080;28;20048;-85
2023/04/30 12:26:44;;;;;;;4.85;0.90;;;16.80;99.90;;;;;;5049617;28;20044;-82
2023/04/30 12:29:30;;;;;;;8.25;1.23;;;16.80;99.90;;;;;;5044655;28;20166;-87
2023/04/30 12:31:56;;;;;;;4.60;1.48;;;17.00;99.90;;;;;;5060873;28;20107;-86
2023/04/30 12:34:26;;;;;;;4.53;1.13;;;16.70;99.90;;;;;;5030230;28;20043;-86
2023/04/30 12:36:52;;;;;;;3.67;1.30;;;16.50;99.90;;;;;;5032083;28;20040;-84
2023/04/30 12:39:17;;;;;;;6.43;1.13;;;16.50;99.90;;;;;;5046428;28;20045;-85
2023/04/30 12:41:47;;;;;;;9.13;1.00;;;16.60;99.90;;;;;;5049115;28;20041;-85
2023/04/30 12:44:24;;;;;;;3.10;0.95;;;16.50;99.90;;;;;;5050787;28;20045;-86
2023/04/30 12:46:59;;;;;;;3.50;1.02;;;16.60;99.90;;;;;;5056240;28;20036;-87
2023/04/30 12:49:33;;;;;;;3.90;1.35;;;16.70;99.90;;;;;;5031874;28;20049;-86
2023/04/30 12:52:01;;;;;;;2.95;1.40;;;16.90;99.90;;;;;;5036501;28;20084;-86
2023/04/30 12:54:28;;;;;;;5.22;1.65;;;17.10;99.90;;;;;;5052697;28;20517;-85
2023/04/30 12:57:07;;;;;;;5.57;1.30;;;17.90;99.90;;;;;;5041287;28;20101;-87